Time;durP1;ratioP1;P1;durP2;ratioP2;P2;SDS_P1;SDS_P2;PMS_P1;PMS_P2;Temp;Humidity;BMP_temperature;BMP_pressure;BME280_temperature;BME280_humidity;BME280_pressure;Samples;Min_cycle;Max_cycle;Signal;HPM_P1;HPM_P2
2021/06/15 00:00:45;;;;;;;8.68;5.50;;;;;;;;;;5011195;28;20076;-70
2021/06/15 00:03:12;;;;;;;8.63;5.53;;;;;;;;;;5010280;28;20040;-70
2021/06/15 00:05:39;;;;;;;9.18;5.90;;;;;;;;;;5007302;28;20049;-70
2021/06/15 00:08:06;;;;;;;10.30;5.53;;;;;;;;;;5013771;28;20040;-70
2021/06/15 00:10:33;;;;;;;8.13;5.90;;;;;;;;;;5012824;28;20502;-70
2021/06/15 00:13:01;;;;;;;10.90;5.60;;;;;;;;;;5014643;28;20015;-70
2021/06/15 00:15:28;;;;;;;11.40;5.25;;;;;;;;;;5011753;28;20478;-69
2021/06/15 00:17:56;;;;;;;8.35;5.38;;;;;;;;;;5014907;28;20034;-70
2021/06/15 00:20:23;;;;;;;8.18;5.00;;;;;;;;;;5013009;28;20409;-70
2021/06/15 00:22:51;;;;;;;11.48;5.75;;;;;;;;;;5013959;28;20057;-70
2021/06/15 00:25:18;;;;;;;11.70;4.75;;;;;;;;;;5012487;28;20113;-70
2021/06/15 00:27:45;;;;;;;9.50;4.85;;;;;;;;;;5013254;28;20030;-70
2021/06/15 00:30:14;;;;;;;7.78;4.90;;;;;;;;;;5010551;28;20521;-70
2021/06/15 00:32:41;;;;;;;7.18;6.03;;;;;;;;;;5014978;28;20113;-70
2021/06/15 00:35:08;;;;;;;9.25;5.43;;;;;;;;;;5012801;28;20427;-71
2021/06/15 00:37:36;;;;;;;9.43;5.05;;;;;;;;;;5006268;28;20089;-70
2021/06/15 00:40:04;;;;;;;11.13;5.43;;;;;;;;;;5007244;28;20022;-70
2021/06/15 00:42:31;;;;;;;9.65;5.15;;;;;;;;;;5014171;28;20018;-70
2021/06/15 00:44:58;;;;;;;9.60;5.55;;;;;;;;;;5012174;28;20037;-70
2021/06/15 00:47:25;;;;;;;8.48;5.00;;;;;;;;;;5016183;28;20029;-70
2021/06/15 00:49:54;;;;;;;8.32;4.95;;;;;;;;;;5010214;28;20030;-70
2021/06/15 00:52:22;;;;;;;7.22;4.60;;;;;;;;;;5009499;28;20116;-70
2021/06/15 00:54:49;;;;;;;8.30;5.30;;;;;;;;;;5009078;28;20049;-70
2021/06/15 00:57:18;;;;;;;7.85;5.47;;;;;;;;;;5010597;28;20018;-70
2021/06/15 00:59:45;;;;;;;10.18;5.90;;;;;;;;;;5010997;28;20022;-70
2021/06/15 01:02:12;;;;;;;11.20;5.55;;;;;;;;;;5008588;28;20511;-70
2021/06/15 01:04:40;;;;;;;7.78;4.97;;;;;;;;;;5010097;28;20433;-70
2021/06/15 01:07:44;;;;;;;7.43;5.22;;;;;;;;;;5010587;28;20041;-70
2021/06/15 01:10:14;;;;;;;10.20;5.38;;;;;;;;;;4918078;29;20070;-69
2021/06/15 01:12:41;;;;;;;9.98;5.55;;;;;;;;;;4984279;28;20042;-70
2021/06/15 01:15:08;;;;;;;9.07;5.00;;;;;;;;;;5002164;28;20406;-70
2021/06/15 01:17:40;;;;;;;9.52;5.65;;;;;;;;;;5010387;28;20070;-70
2021/06/15 01:20:07;;;;;;;12.98;5.47;;;;;;;;;;5011963;28;20479;-70
2021/06/15 01:22:46;;;;;;;12.40;6.63;;;;;;;;;;5013569;28;20594;-70
2021/06/15 01:25:32;;;;;;;9.68;5.43;;;;;;;;;;5009406;28;20522;-69
2021/06/15 01:28:28;;;;;;;8.48;5.45;;;;;;;;;;5011787;28;20087;-69
2021/06/15 01:31:17;;;;;;;10.32;5.30;;;;;;;;;;4955814;28;20043;-69
2021/06/15 01:33:48;;;;;;;8.82;5.43;;;;;;;;;;5000249;28;20029;-69
2021/06/15 01:36:16;;;;;;;11.77;5.22;;;;;;;;;;5006330;28;20495;-69
2021/06/15 01:38:53;;;;;;;11.45;5.50;;;;;;;;;;5009161;28;20113;-69
2021/06/15 01:41:27;;;;;;;9.25;6.28;;;;;;;;;;5007899;28;20482;-69
2021/06/15 01:43:57;;;;;;;13.73;5.47;;;;;;;;;;5007848;28;20034;-68
2021/06/15 01:46:27;;;;;;;10.05;6.00;;;;;;;;;;5003088;28;20068;-69
2021/06/15 01:49:02;;;;;;;10.48;5.88;;;;;;;;;;5007469;28;20022;-69
2021/06/15 01:51:30;;;;;;;8.93;5.40;;;;;;;;;;4992865;28;20109;-69
2021/06/15 01:54:01;;;;;;;7.10;5.43;;;;;;;;;;5009869;28;20022;-69
2021/06/15 01:56:29;;;;;;;6.47;4.30;;;;;;;;;;5010773;28;20033;-69
2021/06/15 01:58:58;;;;;;;8.07;4.15;;;;;;;;;;5011429;28;20053;-69
2021/06/15 02:01:29;;;;;;;6.75;3.20;;;;;;;;;;5010965;28;20018;-69
2021/06/15 02:03:56;;;;;;;6.35;2.92;;;;;;;;;;5012608;28;20109;-69
2021/06/15 02:06:24;;;;;;;7.25;3.78;;;;;;;;;;5011636;28;20443;-69
2021/06/15 02:08:52;;;;;;;6.78;2.03;;;;;;;;;;5011538;28;20029;-69
2021/06/15 02:11:23;;;;;;;3.92;2.20;;;;;;;;;;5010889;28;20026;-69
2021/06/15 02:13:51;;;;;;;9.02;2.40;;;;;;;;;;5011079;28;20018;-69
2021/06/15 02:16:19;;;;;;;3.42;2.08;;;;;;;;;;5009850;28;20541;-69
2021/06/15 02:18:49;;;;;;;5.90;2.67;;;;;;;;;;5011807;28;20033;-69
2021/06/15 02:21:16;;;;;;;5.18;2.28;;;;;;;;;;5009672;28;20014;-69
2021/06/15 02:23:45;;;;;;;4.55;1.65;;;;;;;;;;4993839;28;20034;-69
2021/06/15 02:26:15;;;;;;;4.60;2.65;;;;;;;;;;5006579;28;20387;-69
2021/06/15 02:28:42;;;;;;;3.97;1.90;;;;;;;;;;5019189;28;20026;-69
2021/06/15 02:31:10;;;;;;;4.25;2.38;;;;;;;;;;5012575;28;20122;-69
2021/06/15 02:33:40;;;;;;;5.70;2.78;;;;;;;;;;5007541;28;20041;-69
2021/06/15 02:36:12;;;;;;;6.22;2.38;;;;;;;;;;5010242;28;20048;-69
2021/06/15 02:38:41;;;;;;;3.40;2.15;;;;;;;;;;4990910;28;20034;-69
2021/06/15 02:41:10;;;;;;;3.72;1.95;;;;;;;;;;5007213;28;20026;-69
2021/06/15 02:43:39;;;;;;;5.07;1.77;;;;;;;;;;5010866;28;20061;-69
2021/06/15 02:46:07;;;;;;;6.65;2.50;;;;;;;;;;5009246;28;20037;-69
2021/06/15 02:48:35;;;;;;;2.60;1.60;;;;;;;;;;5027559;28;20108;-69
2021/06/15 02:51:03;;;;;;;5.53;2.05;;;;;;;;;;5001454;28;20038;-69
2021/06/15 02:53:37;;;;;;;6.40;1.85;;;;;;;;;;4994903;28;20504;-69
2021/06/15 02:56:24;;;;;;;5.03;3.08;;;;;;;;;;5009130;28;20037;-69
2021/06/15 02:58:51;;;;;;;4.93;2.75;;;;;;;;;;5011501;28;20113;-69
2021/06/15 03:01:18;;;;;;;3.08;1.92;;;;;;;;;;5010049;28;20041;-69
2021/06/15 03:03:45;;;;;;;6.18;1.80;;;;;;;;;;5010218;28;20438;-69
2021/06/15 03:06:13;;;;;;;5.55;2.60;;;;;;;;;;5007918;28;20088;-69
2021/06/15 03:08:40;;;;;;;4.38;2.30;;;;;;;;;;5009157;28;20026;-69
2021/06/15 03:11:08;;;;;;;7.28;2.17;;;;;;;;;;5006065;28;20426;-69
2021/06/15 03:13:40;;;;;;;7.00;1.98;;;;;;;;;;5007322;28;20022;-69
2021/06/15 03:16:09;;;;;;;4.40;2.10;;;;;;;;;;5009044;28;20054;-69
2021/06/15 03:18:45;;;;;;;5.80;2.10;;;;;;;;;;5005675;28;20121;-69
2021/06/15 03:21:18;;;;;;;3.80;2.20;;;;;;;;;;5006000;28;20020;-69
2021/06/15 03:23:52;;;;;;;4.45;1.50;;;;;;;;;;4995714;28;20065;-69
2021/06/15 03:26:25;;;;;;;5.28;2.05;;;;;;;;;;5008073;28;20199;-69
2021/06/15 03:28:56;;;;;;;3.45;1.15;;;;;;;;;;5004920;28;20491;-69
2021/06/15 03:31:24;;;;;;;3.10;0.93;;;;;;;;;;5007337;28;20092;-69
2021/06/15 03:33:53;;;;;;;4.10;0.70;;;;;;;;;;5007860;28;20042;-68
2021/06/15 03:36:21;;;;;;;2.67;0.60;;;;;;;;;;5000205;28;20497;-69
2021/06/15 03:38:49;;;;;;;2.42;0.60;;;;;;;;;;5006890;28;20433;-69
2021/06/15 03:41:17;;;;;;;3.88;0.73;;;;;;;;;;5007309;28;20030;-69
2021/06/15 03:43:48;;;;;;;5.10;0.88;;;;;;;;;;5008102;28;20546;-69
2021/06/15 03:46:15;;;;;;;1.10;0.55;;;;;;;;;;5008727;28;20030;-69
2021/06/15 03:48:45;;;;;;;2.63;0.65;;;;;;;;;;5009672;28;20034;-69
2021/06/15 03:51:17;;;;;;;4.10;0.75;;;;;;;;;;5009184;28;20030;-69
2021/06/15 03:53:46;;;;;;;4.85;1.00;;;;;;;;;;5009023;28;20022;-69
2021/06/15 03:56:14;;;;;;;4.90;1.35;;;;;;;;;;5009411;28;20113;-69
2021/06/15 03:58:41;;;;;;;6.43;0.93;;;;;;;;;;5012637;28;20026;-69
2021/06/15 04:01:10;;;;;;;4.05;0.80;;;;;;;;;;5012739;28;20584;-69
2021/06/15 04:03:37;;;;;;;1.23;0.43;;;;;;;;;;5014566;28;20512;-69
2021/06/15 04:06:06;;;;;;;2.33;0.75;;;;;;;;;;5013026;28;20030;-70
2021/06/15 04:08:34;;;;;;;3.22;0.70;;;;;;;;;;5011900;28;20044;-69
2021/06/15 04:11:01;;;;;;;2.55;0.40;;;;;;;;;;5012444;28;20022;-70
2021/06/15 04:13:29;;;;;;;1.95;0.52;;;;;;;;;;5006765;28;20033;-70
2021/06/15 04:15:57;;;;;;;2.63;0.80;;;;;;;;;;5006137;28;20410;-69
2021/06/15 04:18:24;;;;;;;2.17;0.50;;;;;;;;;;5010486;28;20021;-69
2021/06/15 04:20:52;;;;;;;4.32;0.82;;;;;;;;;;5007598;28;20026;-69
2021/06/15 04:23:21;;;;;;;2.83;0.77;;;;;;;;;;5008752;28;20034;-69
2021/06/15 04:25:48;;;;;;;3.05;0.80;;;;;;;;;;5009415;28;20112;-69
2021/06/15 04:28:17;;;;;;;2.30;1.17;;;;;;;;;;5014049;28;20030;-70
2021/06/15 04:30:45;;;;;;;2.85;0.80;;;;;;;;;;5010334;28;20351;-69
2021/06/15 04:33:14;;;;;;;2.90;0.65;;;;;;;;;;5011220;28;20092;-69
2021/06/15 04:35:47;;;;;;;3.20;0.90;;;;;;;;;;4992953;28;20080;-69
2021/06/15 04:38:32;;;;;;;4.32;0.77;;;;;;;;;;5013682;28;20478;-69
2021/06/15 04:41:02;;;;;;;3.47;0.82;;;;;;;;;;5012848;28;20455;-69
2021/06/15 04:43:32;;;;;;;6.47;0.90;;;;;;;;;;5011570;28;20371;-70
2021/06/15 04:46:17;;;;;;;6.55;0.90;;;;;;;;;;5009032;28;20026;-69
2021/06/15 04:48:46;;;;;;;4.85;0.80;;;;;;;;;;5008503;28;20033;-69
2021/06/15 04:51:13;;;;;;;3.90;1.00;;;;;;;;;;5007994;28;20048;-69
2021/06/15 04:53:43;;;;;;;6.05;1.52;;;;;;;;;;5007845;28;20074;-69
2021/06/15 04:56:12;;;;;;;4.30;0.75;;;;;;;;;;4994408;28;20113;-69
2021/06/15 04:58:40;;;;;;;3.58;0.90;;;;;;;;;;5012203;28;20088;-69
2021/06/15 05:01:07;;;;;;;3.67;0.70;;;;;;;;;;5012074;28;20026;-68
2021/06/15 05:03:34;;;;;;;6.68;0.90;;;;;;;;;;5012698;28;20036;-70
2021/06/15 05:06:08;;;;;;;18.02;2.30;;;;;;;;;;5008043;28;20045;-69
2021/06/15 05:08:38;;;;;;;11.98;1.33;;;;;;;;;;5006079;28;20045;-69
2021/06/15 05:11:07;;;;;;;2.67;0.60;;;;;;;;;;5002294;28;20023;-70
2021/06/15 05:13:36;;;;;;;4.05;1.10;;;;;;;;;;5013389;28;20506;-70
2021/06/15 05:16:04;;;;;;;2.17;0.80;;;;;;;;;;5009989;28;20367;-70
2021/06/15 05:18:34;;;;;;;20.83;2.53;;;;;;;;;;5012214;28;20026;-69
2021/06/15 05:21:03;;;;;;;28.70;3.28;;;;;;;;;;5012115;28;20026;-69
2021/06/15 05:23:37;;;;;;;18.95;3.00;;;;;;;;;;5011941;28;20033;-69
2021/06/15 05:26:04;;;;;;;7.65;1.70;;;;;;;;;;5002480;28;20125;-69
2021/06/15 05:28:31;;;;;;;30.58;3.72;;;;;;;;;;5011975;28;20033;-69
2021/06/15 05:30:59;;;;;;;14.35;1.98;;;;;;;;;;5011284;28;20021;-68
2021/06/15 05:33:26;;;;;;;3.78;0.98;;;;;;;;;;5008347;28;20128;-69
2021/06/15 05:35:53;;;;;;;5.85;1.05;;;;;;;;;;5012512;28;20463;-69
2021/06/15 05:38:20;;;;;;;6.90;1.50;;;;;;;;;;5012611;28;20088;-69
2021/06/15 05:40:48;;;;;;;6.68;1.20;;;;;;;;;;5010343;28;20037;-69
2021/06/15 05:43:16;;;;;;;1.40;0.85;;;;;;;;;;5012890;28;20517;-69
2021/06/15 05:45:43;;;;;;;4.72;0.88;;;;;;;;;;4993643;28;20041;-69
2021/06/15 05:48:11;;;;;;;5.45;1.02;;;;;;;;;;5009184;28;20057;-69
2021/06/15 05:50:39;;;;;;;6.25;1.67;;;;;;;;;;5010915;28;20029;-69
2021/06/15 05:53:06;;;;;;;9.02;1.52;;;;;;;;;;5012774;28;20050;-68
2021/06/15 05:55:34;;;;;;;2.50;0.93;;;;;;;;;;5011887;28;20566;-69
2021/06/15 05:58:02;;;;;;;6.57;0.95;;;;;;;;;;5013099;28;20161;-68
2021/06/15 06:00:32;;;;;;;2.60;0.68;;;;;;;;;;5010547;28;20109;-68
2021/06/15 06:02:59;;;;;;;5.82;0.88;;;;;;;;;;5001688;28;20038;-69
2021/06/15 06:08:09;;;;;;;1.50;0.90;;;;;;;;;;5012339;28;20070;-69
2021/06/15 06:10:37;;;;;;;4.70;0.70;;;;;;;;;;5006809;28;20490;-68
2021/06/15 06:13:06;;;;;;;2.67;0.70;;;;;;;;;;5012882;28;20108;-69
2021/06/15 06:15:33;;;;;;;6.95;0.82;;;;;;;;;;5008305;28;20025;-69
2021/06/15 06:18:04;;;;;;;3.22;0.60;;;;;;;;;;5010368;28;20446;-68
2021/06/15 06:20:31;;;;;;;6.15;1.10;;;;;;;;;;5008718;28;20482;-69
2021/06/15 06:22:59;;;;;;;6.60;1.52;;;;;;;;;;5011506;28;20073;-69
2021/06/15 06:25:27;;;;;;;2.70;1.00;;;;;;;;;;5008872;28;20041;-69
2021/06/15 06:27:54;;;;;;;4.55;0.98;;;;;;;;;;5005312;28;20076;-69
2021/06/15 06:30:22;;;;;;;5.15;0.88;;;;;;;;;;5011216;28;20538;-68
2021/06/15 06:32:49;;;;;;;2.97;1.05;;;;;;;;;;5010752;28;20095;-69
2021/06/15 06:35:16;;;;;;;5.55;1.42;;;;;;;;;;5010770;28;20021;-69
2021/06/15 06:37:43;;;;;;;4.22;0.68;;;;;;;;;;5012440;28;20026;-69
2021/06/15 06:40:11;;;;;;;4.47;0.80;;;;;;;;;;5009807;28;20026;-69
2021/06/15 06:42:38;;;;;;;5.35;1.05;;;;;;;;;;5012031;28;20434;-69
2021/06/15 06:45:05;;;;;;;5.75;1.38;;;;;;;;;;5008759;28;20072;-69
2021/06/15 06:47:32;;;;;;;5.30;1.02;;;;;;;;;;5010668;28;20025;-69
2021/06/15 06:50:00;;;;;;;4.18;0.90;;;;;;;;;;5010116;28;20029;-69
2021/06/15 06:52:27;;;;;;;4.00;1.10;;;;;;;;;;5009953;28;20379;-69
2021/06/15 06:54:54;;;;;;;6.82;1.75;;;;;;;;;;5009086;28;20030;-69
2021/06/15 06:57:21;;;;;;;6.00;1.52;;;;;;;;;;5001668;28;20034;-69
2021/06/15 06:59:48;;;;;;;2.10;0.90;;;;;;;;;;5008912;28;20526;-69
2021/06/15 07:02:15;;;;;;;2.80;0.93;;;;;;;;;;5010913;28;20129;-69
2021/06/15 07:04:42;;;;;;;3.30;1.02;;;;;;;;;;5010638;28;20028;-69
2021/06/15 07:07:10;;;;;;;3.72;1.38;;;;;;;;;;5010813;28;20612;-69
2021/06/15 07:09:38;;;;;;;2.13;1.00;;;;;;;;;;5010260;28;20030;-69
2021/06/15 07:12:05;;;;;;;3.92;1.00;;;;;;;;;;5009820;28;20030;-69
2021/06/15 07:14:32;;;;;;;3.78;0.90;;;;;;;;;;5010907;28;20038;-68
2021/06/15 07:16:59;;;;;;;5.28;1.05;;;;;;;;;;5011481;28;20036;-70
2021/06/15 07:19:26;;;;;;;4.68;1.33;;;;;;;;;;5008482;28;20026;-68
2021/06/15 07:21:53;;;;;;;3.00;1.08;;;;;;;;;;5006434;28;20529;-68
2021/06/15 07:24:21;;;;;;;7.38;1.48;;;;;;;;;;5009875;28;20046;-69
2021/06/15 07:26:48;;;;;;;6.43;1.42;;;;;;;;;;5012327;28;20037;-69
2021/06/15 07:29:15;;;;;;;6.38;1.75;;;;;;;;;;5019729;28;20041;-68
2021/06/15 07:31:42;;;;;;;5.93;1.27;;;;;;;;;;5013957;28;20101;-68
2021/06/15 07:34:09;;;;;;;3.92;1.38;;;;;;;;;;5017789;28;20360;-68
2021/06/15 07:36:36;;;;;;;4.78;1.65;;;;;;;;;;5006855;28;20033;-68
2021/06/15 07:39:04;;;;;;;3.33;1.48;;;;;;;;;;5020923;28;20029;-68
2021/06/15 07:41:31;;;;;;;4.75;1.08;;;;;;;;;;5024985;28;20481;-68
2021/06/15 07:43:58;;;;;;;4.05;1.13;;;;;;;;;;5033279;28;20033;-69
2021/06/15 07:46:25;;;;;;;4.25;1.30;;;;;;;;;;5013739;28;20515;-68
2021/06/15 07:48:53;;;;;;;6.18;0.90;;;;;;;;;;5022231;28;20049;-68
2021/06/15 07:51:20;;;;;;;3.95;1.20;;;;;;;;;;5014147;28;20018;-68
2021/06/15 07:53:47;;;;;;;4.47;0.70;;;;;;;;;;5018982;28;20033;-67
2021/06/15 07:56:15;;;;;;;2.70;1.13;;;;;;;;;;5016081;28;20486;-68
2021/06/15 07:58:42;;;;;;;3.97;0.77;;;;;;;;;;5008219;28;20032;-67
2021/06/15 08:01:09;;;;;;;2.42;0.68;;;;;;;;;;5013212;28;20029;-67
2021/06/15 08:03:36;;;;;;;2.88;0.77;;;;;;;;;;5023499;28;20028;-68
2021/06/15 08:06:04;;;;;;;2.25;0.60;;;;;;;;;;5018420;28;20434;-68
2021/06/15 08:08:31;;;;;;;3.17;0.55;;;;;;;;;;5017368;28;20033;-68
2021/06/15 08:10:58;;;;;;;4.07;0.90;;;;;;;;;;5022658;28;20490;-68
2021/06/15 08:13:25;;;;;;;1.63;0.65;;;;;;;;;;5022477;28;20076;-68
2021/06/15 08:15:52;;;;;;;3.33;0.80;;;;;;;;;;5017000;28;20499;-67
2021/06/15 08:18:19;;;;;;;2.53;0.50;;;;;;;;;;5016590;28;20037;-68
2021/06/15 08:20:50;;;;;;;2.90;0.52;;;;;;;;;;5014255;28;20036;-68
2021/06/15 08:23:18;;;;;;;2.80;0.50;;;;;;;;;;5026720;28;20089;-68
2021/06/15 08:25:45;;;;;;;2.40;0.40;;;;;;;;;;5009606;28;20046;-68
2021/06/15 08:28:12;;;;;;;5.65;0.60;;;;;;;;;;5012436;28;20033;-69
2021/06/15 08:30:40;;;;;;;2.47;0.40;;;;;;;;;;5011641;28;20065;-69
2021/06/15 08:33:08;;;;;;;2.78;0.50;;;;;;;;;;5009511;28;20018;-70
2021/06/15 08:35:35;;;;;;;1.90;0.38;;;;;;;;;;4991144;28;20037;-69
2021/06/15 08:38:03;;;;;;;2.13;0.73;;;;;;;;;;5002805;28;20018;-69
2021/06/15 08:40:30;;;;;;;2.15;0.93;;;;;;;;;;5008605;28;20026;-67
2021/06/15 08:42:58;;;;;;;4.20;0.77;;;;;;;;;;5009784;28;20042;-70
2021/06/15 08:45:25;;;;;;;4.80;1.13;;;;;;;;;;5009215;28;20387;-68
2021/06/15 08:47:53;;;;;;;2.95;0.70;;;;;;;;;;5008776;28;20112;-67
2021/06/15 08:50:24;;;;;;;6.60;1.35;;;;;;;;;;5009749;28;20022;-68
2021/06/15 08:52:52;;;;;;;5.25;1.00;;;;;;;;;;5011623;28;20026;-67
2021/06/15 08:55:20;;;;;;;3.80;0.93;;;;;;;;;;5008545;28;20072;-69
2021/06/15 08:57:56;;;;;;;3.25;0.90;;;;;;;;;;5008829;28;20037;-69
2021/06/15 09:00:23;;;;;;;5.32;1.15;;;;;;;;;;5007865;28;20036;-69
2021/06/15 09:02:51;;;;;;;3.63;0.75;;;;;;;;;;5010366;28;20026;-69
2021/06/15 09:05:18;;;;;;;0.95;0.52;;;;;;;;;;5011896;28;20022;-69
2021/06/15 09:08:08;;;;;;;3.80;1.00;;;;;;;;;;5012939;28;20026;-70
2021/06/15 09:10:56;;;;;;;3.10;0.73;;;;;;;;;;5002387;28;20446;-69
2021/06/15 09:13:36;;;;;;;4.30;0.80;;;;;;;;;;5008208;28;20026;-69
2021/06/15 09:16:18;;;;;;;4.30;1.60;;;;;;;;;;4991192;28;20112;-69
2021/06/15 09:18:45;;;;;;;5.85;1.75;;;;;;;;;;5013208;28;20049;-69
2021/06/15 09:21:12;;;;;;;3.95;1.60;;;;;;;;;;5007931;28;20030;-69
2021/06/15 09:23:40;;;;;;;2.97;1.15;;;;;;;;;;5011290;28;20036;-69
2021/06/15 09:26:07;;;;;;;6.22;1.45;;;;;;;;;;5008311;28;20022;-69
2021/06/15 09:28:34;;;;;;;3.20;1.35;;;;;;;;;;5010581;28;20041;-69
2021/06/15 09:31:03;;;;;;;3.88;1.73;;;;;;;;;;5008625;28;20022;-69
2021/06/15 09:33:42;;;;;;;5.07;1.80;;;;;;;;;;4999042;28;20116;-69
2021/06/15 09:36:15;;;;;;;4.13;1.83;;;;;;;;;;4993168;28;20026;-69
2021/06/15 09:38:56;;;;;;;6.50;1.83;;;;;;;;;;4993522;28;20028;-68
2021/06/15 09:41:37;;;;;;;4.90;1.58;;;;;;;;;;5007316;28;20110;-69
2021/06/15 09:44:14;;;;;;;4.85;1.25;;;;;;;;;;5012524;28;20026;-70
2021/06/15 09:46:52;;;;;;;7.80;1.90;;;;;;;;;;5000539;28;20196;-70
2021/06/15 09:49:28;;;;;;;6.95;1.77;;;;;;;;;;5007871;28;20037;-70
2021/06/15 09:52:10;;;;;;;4.30;1.65;;;;;;;;;;5009282;28;20383;-69
2021/06/15 09:54:45;;;;;;;4.20;1.77;;;;;;;;;;5011220;28;20433;-69
2021/06/15 09:57:13;;;;;;;4.30;1.90;;;;;;;;;;5009874;28;20025;-69
2021/06/15 09:59:58;;;;;;;5.60;2.45;;;;;;;;;;5010934;28;20049;-69
2021/06/15 10:02:25;;;;;;;5.82;2.70;;;;;;;;;;4993828;28;20502;-69
2021/06/15 10:04:52;;;;;;;5.88;1.85;;;;;;;;;;5017176;28;20022;-69
2021/06/15 10:07:26;;;;;;;5.38;2.28;;;;;;;;;;5024979;28;20025;-69
2021/06/15 10:09:55;;;;;;;7.28;3.05;;;;;;;;;;5015749;28;20379;-69
2021/06/15 10:12:22;;;;;;;6.82;2.90;;;;;;;;;;5010451;28;20091;-69
2021/06/15 10:14:49;;;;;;;12.75;8.45;;;;;;;;;;5021043;28;20034;-69
2021/06/15 10:17:17;;;;;;;10.27;7.03;;;;;;;;;;5010616;28;20394;-69
2021/06/15 10:19:44;;;;;;;11.05;6.47;;;;;;;;;;5001858;28;20558;-69
2021/06/15 10:22:11;;;;;;;11.20;4.70;;;;;;;;;;5016338;28;20030;-70
2021/06/15 10:24:39;;;;;;;6.40;3.28;;;;;;;;;;5007297;28;20041;-70
2021/06/15 10:27:08;;;;;;;11.68;5.57;;;;;;;;;;5015579;28;20143;-69
2021/06/15 10:29:36;;;;;;;8.98;4.28;;;;;;;;;;5013971;28;20433;-69
2021/06/15 10:32:14;;;;;;;10.00;4.28;;;;;;;;;;5012654;28;20105;-70
2021/06/15 10:34:47;;;;;;;9.68;4.25;;;;;;;;;;5011154;28;20033;-69
2021/06/15 10:37:36;;;;;;;7.78;4.13;;;;;;;;;;5014596;28;20038;-69
2021/06/15 10:40:26;;;;;;;8.52;3.42;;;;;;;;;;5018548;28;20026;-69
2021/06/15 10:43:12;;;;;;;10.93;4.80;;;;;;;;;;5010159;28;20041;-69
2021/06/15 10:45:40;;;;;;;10.18;4.90;;;;;;;;;;5011459;28;20021;-69
2021/06/15 10:48:07;;;;;;;7.03;3.80;;;;;;;;;;5019140;28;20053;-69
2021/06/15 10:50:37;;;;;;;13.23;4.68;;;;;;;;;;5031021;28;20025;-69
2021/06/15 10:53:06;;;;;;;9.73;5.18;;;;;;;;;;5009335;28;20018;-69
2021/06/15 10:55:51;;;;;;;11.38;6.28;;;;;;;;;;5010193;28;20033;-69
2021/06/15 10:58:44;;;;;;;11.88;6.30;;;;;;;;;;5016693;28;20433;-69
2021/06/15 11:01:28;;;;;;;11.23;7.22;;;;;;;;;;5028767;28;20547;-69
2021/06/15 11:03:56;;;;;;;10.40;7.90;;;;;;;;;;5011757;28;20422;-68
2021/06/15 11:06:29;;;;;;;13.20;7.88;;;;;;;;;;5011996;28;20044;-68
2021/06/15 11:09:11;;;;;;;15.85;11.15;;;;;;;;;;5033864;28;20083;-69
2021/06/15 11:11:38;;;;;;;17.88;10.07;;;;;;;;;;5017084;28;20129;-69
2021/06/15 11:14:06;;;;;;;13.60;9.07;;;;;;;;;;5016618;28;20116;-69
2021/06/15 11:16:35;;;;;;;13.82;8.23;;;;;;;;;;5033112;28;20036;-69
2021/06/15 11:19:12;;;;;;;12.85;7.72;;;;;;;;;;5031172;28;20104;-69
2021/06/15 11:21:45;;;;;;;9.25;5.60;;;;;;;;;;5000708;28;20038;-69
2021/06/15 11:24:24;;;;;;;11.38;5.70;;;;;;;;;;5033066;28;20075;-70
2021/06/15 11:26:53;;;;;;;11.82;6.07;;;;;;;;;;5031888;28;20021;-70
2021/06/15 11:29:35;;;;;;;10.13;5.22;;;;;;;;;;5007623;28;20050;-70
2021/06/15 11:32:19;;;;;;;14.38;5.15;;;;;;;;;;5030958;28;20470;-70
2021/06/15 11:35:04;;;;;;;8.40;5.38;;;;;;;;;;5035487;28;20022;-70
2021/06/15 11:37:42;;;;;;;8.57;4.75;;;;;;;;;;5020623;28;20026;-70
2021/06/15 11:40:14;;;;;;;9.68;4.72;;;;;;;;;;5028189;28;20108;-70
2021/06/15 11:42:41;;;;;;;9.18;4.32;;;;;;;;;;5016874;28;20014;-69
2021/06/15 11:45:15;;;;;;;7.50;5.63;;;;;;;;;;5024650;28;20021;-69
2021/06/15 11:47:42;;;;;;;;;;;;;;;;;;5019235;28;20072;-69
2021/06/15 11:50:09;;;;;;;8.25;4.63;;;;;;;;;;5018001;28;19921;-69
2021/06/15 11:52:37;;;;;;;10.07;5.32;;;;;;;;;;5020640;28;20024;-69
2021/06/15 11:55:08;;;;;;;9.00;5.25;;;;;;;;;;5017199;28;20037;-69
2021/06/15 11:57:35;;;;;;;7.65;5.20;;;;;;;;;;5022524;28;20026;-69
2021/06/15 12:00:04;;;;;;;11.60;5.57;;;;;;;;;;5022541;28;20025;-69
2021/06/15 12:02:31;;;;;;;10.48;5.35;;;;;;;;;;5018710;28;20026;-69
2021/06/15 12:05:04;;;;;;;8.73;5.30;;;;;;;;;;5028036;28;20029;-69
2021/06/15 12:07:32;;;;;;;7.93;5.53;;;;;;;;;;5032257;28;20117;-69
2021/06/15 12:10:11;;;;;;;10.20;5.53;;;;;;;;;;5016067;28;20509;-69
2021/06/15 12:12:54;;;;;;;11.38;5.95;;;;;;;;;;5000726;28;20018;-68
2021/06/15 12:15:28;;;;;;;11.80;5.90;;;;;;;;;;5022033;28;20387;-68
2021/06/15 12:17:55;;;;;;;7.28;5.22;;;;;;;;;;5011903;28;20478;-68
2021/06/15 12:20:23;;;;;;;10.43;6.38;;;;;;;;;;5004787;28;20480;-71
2021/06/15 12:22:50;;;;;;;9.32;5.93;;;;;;;;;;5013477;28;20168;-69
2021/06/15 12:25:18;;;;;;;10.43;6.85;;;;;;;;;;5018713;28;20548;-68
2021/06/15 12:27:46;;;;;;;11.10;5.72;;;;;;;;;;5024560;28;20022;-68
2021/06/15 12:30:13;;;;;;;8.30;5.57;;;;;;;;;;5018264;28;20037;-69
2021/06/15 12:32:47;;;;;;;10.15;6.20;;;;;;;;;;5025284;28;20437;-69
2021/06/15 12:35:17;;;;;;;8.37;6.03;;;;;;;;;;5015680;28;20026;-69
2021/06/15 12:37:44;;;;;;;9.73;6.78;;;;;;;;;;5024643;28;20269;-69
2021/06/15 12:40:12;;;;;;;10.85;6.97;;;;;;;;;;5027315;28;20018;-68
2021/06/15 12:42:39;;;;;;;13.27;7.97;;;;;;;;;;5013114;28;20381;-69
2021/06/15 12:45:07;;;;;;;11.38;7.75;;;;;;;;;;5022191;28;20097;-69
2021/06/15 12:47:43;;;;;;;12.30;7.47;;;;;;;;;;5017492;28;20043;-69
2021/06/15 12:50:21;;;;;;;15.77;6.80;;;;;;;;;;5032942;28;20033;-69
2021/06/15 12:52:48;;;;;;;10.57;6.38;;;;;;;;;;5017494;28;20505;-69
2021/06/15 12:55:17;;;;;;;11.57;7.03;;;;;;;;;;5032402;28;20091;-69
2021/06/15 12:57:57;;;;;;;13.90;8.23;;;;;;;;;;5018239;28;20030;-69
2021/06/15 13:00:24;;;;;;;11.43;8.05;;;;;;;;;;5021259;28;20017;-69
2021/06/15 13:02:51;;;;;;;12.52;8.90;;;;;;;;;;5015964;28;20032;-68
2021/06/15 13:05:20;;;;;;;12.82;9.43;;;;;;;;;;5019471;28;20105;-69
2021/06/15 13:08:00;;;;;;;13.85;10.02;;;;;;;;;;5030497;28;20033;-69
2021/06/15 13:10:28;;;;;;;19.38;10.38;;;;;;;;;;5018438;28;20073;-69
2021/06/15 13:12:57;;;;;;;15.77;10.10;;;;;;;;;;5013625;28;20473;-69
2021/06/15 13:15:25;;;;;;;16.02;9.65;;;;;;;;;;5016824;28;20018;-69
2021/06/15 13:17:56;;;;;;;12.50;9.32;;;;;;;;;;5021000;28;20036;-69
2021/06/15 13:20:24;;;;;;;25.25;10.65;;;;;;;;;;5016543;28;20022;-69
2021/06/15 13:22:52;;;;;;;17.15;10.02;;;;;;;;;;5015050;28;20026;-69
2021/06/15 13:25:21;;;;;;;15.93;10.07;;;;;;;;;;5013032;28;20518;-69
2021/06/15 13:27:50;;;;;;;17.08;10.95;;;;;;;;;;5019343;28;20116;-69
2021/06/15 13:30:17;;;;;;;15.40;10.80;;;;;;;;;;5020718;28;20026;-68
2021/06/15 13:32:45;;;;;;;20.67;12.00;;;;;;;;;;5016636;28;20022;-69
2021/06/15 13:35:16;;;;;;;17.92;12.45;;;;;;;;;;5022720;28;20018;-69
2021/06/15 13:37:43;;;;;;;20.95;11.70;;;;;;;;;;4997077;28;20121;-69
2021/06/15 13:40:12;;;;;;;21.85;11.77;;;;;;;;;;5018149;28;20037;-68
2021/06/15 13:42:40;;;;;;;20.55;11.20;;;;;;;;;;5022347;28;20022;-69
2021/06/15 13:45:14;;;;;;;22.05;12.93;;;;;;;;;;5017635;28;20021;-68
2021/06/15 13:47:42;;;;;;;18.95;13.10;;;;;;;;;;5019351;28;20029;-69
2021/06/15 13:50:11;;;;;;;16.75;12.75;;;;;;;;;;5013062;28;20037;-69
2021/06/15 13:52:38;;;;;;;19.83;12.75;;;;;;;;;;5016483;28;20053;-69
2021/06/15 13:55:08;;;;;;;21.33;12.93;;;;;;;;;;5027306;28;20538;-69
2021/06/15 13:57:36;;;;;;;26.33;12.60;;;;;;;;;;5018901;28;20121;-69
2021/06/15 14:00:11;;;;;;;19.40;13.40;;;;;;;;;;5016563;28;20508;-69
2021/06/15 14:02:38;;;;;;;19.00;12.32;;;;;;;;;;5016578;28;20030;-69
2021/06/15 14:05:06;;;;;;;18.33;13.38;;;;;;;;;;5021385;28;20494;-69
2021/06/15 14:07:33;;;;;;;18.10;12.07;;;;;;;;;;5030170;28;20036;-69
2021/06/15 14:10:00;;;;;;;15.48;11.07;;;;;;;;;;5013406;28;20038;-69
2021/06/15 14:12:27;;;;;;;18.27;12.13;;;;;;;;;;5002809;28;20125;-69
2021/06/15 14:14:54;;;;;;;16.48;12.00;;;;;;;;;;5018955;28;20101;-69
2021/06/15 14:17:22;;;;;;;17.73;11.75;;;;;;;;;;5024077;28;20104;-69
2021/06/15 14:19:49;;;;;;;22.40;13.95;;;;;;;;;;5030862;28;20117;-69
2021/06/15 14:22:16;;;;;;;24.05;13.57;;;;;;;;;;5016158;28;20022;-69
2021/06/15 14:24:43;;;;;;;18.73;14.02;;;;;;;;;;5012669;28;20084;-69
2021/06/15 14:27:10;;;;;;;24.40;14.32;;;;;;;;;;5016022;28;20044;-69
2021/06/15 14:29:38;;;;;;;20.08;14.50;;;;;;;;;;5015443;28;20109;-69
2021/06/15 14:32:05;;;;;;;23.70;14.35;;;;;;;;;;5013251;28;20017;-69
2021/06/15 14:34:32;;;;;;;17.60;13.88;;;;;;;;;;5019187;28;20038;-69
2021/06/15 14:37:00;;;;;;;18.40;14.18;;;;;;;;;;5015408;28;20417;-68
2021/06/15 14:39:27;;;;;;;22.63;14.15;;;;;;;;;;5023441;28;20014;-69
2021/06/15 14:41:55;;;;;;;17.52;12.43;;;;;;;;;;5021344;28;20030;-68
2021/06/15 14:44:22;;;;;;;23.02;13.73;;;;;;;;;;5010865;28;20030;-69
2021/06/15 14:46:49;;;;;;;17.83;14.18;;;;;;;;;;5006313;28;20490;-68
2021/06/15 14:49:16;;;;;;;21.80;16.73;;;;;;;;;;5018605;28;20049;-69
2021/06/15 14:51:43;;;;;;;21.67;16.73;;;;;;;;;;5012682;28;20033;-69
2021/06/15 14:54:10;;;;;;;24.13;16.92;;;;;;;;;;5012145;28;20057;-68
2021/06/15 14:56:40;;;;;;;27.98;18.73;;;;;;;;;;5003215;28;20022;-68